createdAt,value
2018-08-13T00:00:11.321Z,0.00
2018-08-13T00:01:11.307Z,0.00
2018-08-13T00:02:11.286Z,0.00
2018-08-13T00:03:11.269Z,0.00
2018-08-13T00:04:11.254Z,0.00
2018-08-13T00:05:11.234Z,0.00
2018-08-13T00:06:11.218Z,0.00
2018-08-13T00:07:11.202Z,0.00
2018-08-13T00:08:11.184Z,0.00
2018-08-13T00:09:11.169Z,0.00
2018-08-13T00:10:11.154Z,0.00
2018-08-13T00:11:11.137Z,0.00
2018-08-13T00:12:11.119Z,0.00
2018-08-13T00:13:11.099Z,0.00
2018-08-13T00:14:11.079Z,0.00
2018-08-13T00:15:11.071Z,0.00
2018-08-13T00:16:11.048Z,0.00
2018-08-13T00:17:11.031Z,0.00
2018-08-13T00:18:11.018Z,0.00
2018-08-13T00:19:11.002Z,0.00
2018-08-13T00:20:10.981Z,0.00
2018-08-13T00:21:10.961Z,0.00
2018-08-13T00:22:10.948Z,0.00
2018-08-13T00:23:10.929Z,0.00
2018-08-13T00:24:10.913Z,0.00
2018-08-13T00:25:10.895Z,0.00
2018-08-13T00:26:10.878Z,0.00
2018-08-13T00:27:10.864Z,0.00
2018-08-13T00:28:10.855Z,0.00
2018-08-13T00:29:10.830Z,0.00
2018-08-13T00:30:10.810Z,0.00
2018-08-13T00:31:10.794Z,0.00
2018-08-13T00:32:10.776Z,0.00
2018-08-13T00:33:10.758Z,0.00
2018-08-13T00:34:10.741Z,0.00
2018-08-13T00:35:10.728Z,0.00
2018-08-13T00:36:10.707Z,0.00
2018-08-13T00:37:10.688Z,0.00
2018-08-13T00:38:10.670Z,0.00
2018-08-13T00:39:10.661Z,0.00
2018-08-13T00:40:10.650Z,0.00
2018-08-13T00:41:10.624Z,0.00
2018-08-13T00:42:10.609Z,0.00
2018-08-13T00:43:10.587Z,0.00
2018-08-13T00:44:10.568Z,0.00
2018-08-13T00:45:10.555Z,0.00
2018-08-13T00:46:10.539Z,0.00
2018-08-13T00:47:10.521Z,0.00
2018-08-13T00:48:10.505Z,0.00
2018-08-13T00:49:10.486Z,0.00
2018-08-13T00:50:10.462Z,0.00
2018-08-13T00:51:10.447Z,0.00
2018-08-13T00:52:10.441Z,0.00
2018-08-13T00:53:10.410Z,0.00
2018-08-13T00:54:10.396Z,0.00
2018-08-13T00:55:10.379Z,0.00
2018-08-13T00:56:10.361Z,0.00
2018-08-13T00:57:10.341Z,0.00
2018-08-13T00:58:10.328Z,0.00
2018-08-13T00:59:10.310Z,0.00
2018-08-13T01:00:10.295Z,0.00
2018-08-13T01:01:10.277Z,0.00
2018-08-13T01:02:10.263Z,0.00
2018-08-13T01:03:10.237Z,0.00
2018-08-13T01:04:10.220Z,0.00
2018-08-13T01:05:10.201Z,0.00
2018-08-13T01:06:10.204Z,0.00
2018-08-13T01:07:10.173Z,0.00
2018-08-13T01:08:10.154Z,0.00
2018-08-13T01:09:10.136Z,0.00
2018-08-13T01:10:10.114Z,0.00
2018-08-13T01:11:10.103Z,0.00
2018-08-13T01:12:10.084Z,0.00
2018-08-13T01:13:10.066Z,0.00
2018-08-13T01:14:10.048Z,0.00
2018-08-13T01:15:10.031Z,0.00
2018-08-13T01:16:10.013Z,0.00
2018-08-13T01:17:09.995Z,0.00
2018-08-13T01:18:09.974Z,0.00
2018-08-13T01:19:09.963Z,0.00
2018-08-13T01:20:09.949Z,0.00
2018-08-13T01:21:09.926Z,0.00
2018-08-13T01:22:09.904Z,0.00
2018-08-13T01:23:09.887Z,0.00
2018-08-13T01:24:09.871Z,0.00
2018-08-13T01:25:09.851Z,0.00
2018-08-13T01:26:09.837Z,0.00
2018-08-13T01:27:09.817Z,0.00
2018-08-13T01:28:09.799Z,0.00
2018-08-13T01:29:09.785Z,0.00
2018-08-13T01:30:09.763Z,0.00
2018-08-13T01:31:09.751Z,0.00
2018-08-13T01:32:09.733Z,0.00
2018-08-13T01:33:09.716Z,0.00
2018-08-13T01:34:09.697Z,0.00
2018-08-13T01:35:09.674Z,0.00
2018-08-13T01:36:09.662Z,0.00
2018-08-13T01:37:09.650Z,0.00
2018-08-13T01:38:09.635Z,0.00
2018-08-13T01:39:09.610Z,0.00
2018-08-13T01:40:09.589Z,0.00
2018-08-13T01:41:09.570Z,0.00
2018-08-13T01:42:09.551Z,0.00
2018-08-13T01:43:09.538Z,0.00
2018-08-13T01:44:09.521Z,0.00
2018-08-13T01:45:09.499Z,0.00
2018-08-13T01:46:09.481Z,0.00
2018-08-13T01:47:09.466Z,0.00
2018-08-13T01:48:09.446Z,0.00
2018-08-13T01:49:09.433Z,0.00
2018-08-13T01:50:09.412Z,0.00
2018-08-13T01:51:09.397Z,0.00
2018-08-13T01:52:09.377Z,0.00
2018-08-13T01:53:09.357Z,0.00
2018-08-13T01:54:09.340Z,0.00
2018-08-13T01:55:09.323Z,0.00
2018-08-13T01:56:09.306Z,0.00
2018-08-13T01:57:09.284Z,0.00
2018-08-13T01:58:09.269Z,0.00
2018-08-13T01:59:09.254Z,0.00
2018-08-13T02:00:09.232Z,0.00
2018-08-13T02:01:09.217Z,0.00
2018-08-13T02:02:09.198Z,0.00
2018-08-13T02:03:09.184Z,0.00
2018-08-13T02:04:09.162Z,0.00
2018-08-13T02:05:09.146Z,0.00
2018-08-13T02:06:09.126Z,0.00
2018-08-13T02:07:09.108Z,0.00
2018-08-13T02:08:09.088Z,0.00
2018-08-13T02:09:09.072Z,0.00
2018-08-13T02:10:09.053Z,0.00
2018-08-13T02:11:09.035Z,0.00
2018-08-13T02:12:09.022Z,0.00
2018-08-13T02:13:08.998Z,0.00
2018-08-13T02:14:08.982Z,0.00
2018-08-13T02:15:08.967Z,0.00
2018-08-13T02:16:08.946Z,0.00
2018-08-13T02:17:08.926Z,0.00
2018-08-13T02:18:08.913Z,0.00
2018-08-13T02:19:08.896Z,0.00
2018-08-13T02:20:08.877Z,0.00
2018-08-13T02:21:08.854Z,0.00
2018-08-13T02:22:08.840Z,0.00
2018-08-13T02:23:08.824Z,0.00
2018-08-13T02:24:08.806Z,0.00
2018-08-13T02:25:08.783Z,0.00
2018-08-13T02:26:08.776Z,0.00
2018-08-13T02:27:08.750Z,0.00
2018-08-13T02:28:08.732Z,0.00
2018-08-13T02:29:08.714Z,0.00
2018-08-13T02:30:08.693Z,0.00
2018-08-13T02:31:08.681Z,0.00
2018-08-13T02:32:08.661Z,0.00
2018-08-13T02:33:08.642Z,0.00
2018-08-13T02:34:08.633Z,0.00
2018-08-13T02:35:08.603Z,0.00
2018-08-13T02:36:08.585Z,0.00
2018-08-13T02:37:08.571Z,0.00
2018-08-13T02:38:08.551Z,0.00
2018-08-13T02:39:08.564Z,0.00
2018-08-13T02:40:08.513Z,0.00
2018-08-13T02:41:08.492Z,0.00
2018-08-13T02:42:08.475Z,0.00
2018-08-13T02:43:08.460Z,0.00
2018-08-13T02:44:08.439Z,0.00
2018-08-13T02:45:08.424Z,0.00
2018-08-13T02:46:08.402Z,0.00
2018-08-13T02:47:08.382Z,0.00
2018-08-13T02:48:08.365Z,0.00
2018-08-13T02:49:08.351Z,0.00
2018-08-13T02:50:08.332Z,0.00
2018-08-13T02:51:08.309Z,0.00
2018-08-13T02:52:08.296Z,0.00
2018-08-13T02:53:08.272Z,0.00
2018-08-13T02:54:08.258Z,0.00
2018-08-13T02:55:08.244Z,0.00
2018-08-13T02:56:08.224Z,0.00
2018-08-13T02:57:08.204Z,0.00
2018-08-13T02:58:08.256Z,0.00
2018-08-13T02:59:08.168Z,0.00
2018-08-13T03:00:08.152Z,0.00
2018-08-13T03:01:08.133Z,0.00
2018-08-13T03:02:08.118Z,0.00
2018-08-13T03:03:08.095Z,0.00
2018-08-13T03:04:08.080Z,0.00
2018-08-13T03:05:08.064Z,0.00
2018-08-13T03:06:08.038Z,0.00
2018-08-13T03:07:08.017Z,0.00
2018-08-13T03:08:07.999Z,0.00
2018-08-13T03:09:07.981Z,0.00
2018-08-13T03:10:07.959Z,0.00
2018-08-13T03:11:07.945Z,0.00
2018-08-13T03:12:07.924Z,0.00
2018-08-13T03:13:07.907Z,0.00
2018-08-13T03:14:07.891Z,0.00
2018-08-13T03:15:07.871Z,4.00
2018-08-13T03:16:07.851Z,4.00
2018-08-13T03:17:07.831Z,4.00
2018-08-13T03:18:07.817Z,0.00
2018-08-13T03:19:07.800Z,4.00
2018-08-13T03:20:07.779Z,4.00
2018-08-13T03:21:07.769Z,4.00
2018-08-13T03:22:07.743Z,4.00
2018-08-13T03:23:07.727Z,4.00
2018-08-13T03:24:07.701Z,8.00
2018-08-13T03:25:07.686Z,8.00
2018-08-13T03:26:07.669Z,12.00
2018-08-13T03:27:07.649Z,8.00
2018-08-13T03:28:07.627Z,12.00
2018-08-13T03:29:07.608Z,16.00
2018-08-13T03:30:07.592Z,16.00
2018-08-13T03:31:07.573Z,16.00
2018-08-13T03:32:07.559Z,20.00
2018-08-13T03:33:07.534Z,24.00
2018-08-13T03:34:07.515Z,24.00
2018-08-13T03:35:07.500Z,28.00
2018-08-13T03:36:07.478Z,36.00
2018-08-13T03:37:07.463Z,36.00
2018-08-13T03:38:07.441Z,44.00
2018-08-13T03:39:07.422Z,48.00
2018-08-13T03:40:07.406Z,52.00
2018-08-13T03:41:07.384Z,56.00
2018-08-13T03:42:07.366Z,64.00
2018-08-13T03:43:07.351Z,68.00
2018-08-13T03:44:07.332Z,76.00
2018-08-13T03:45:07.313Z,84.00
2018-08-13T03:46:07.295Z,92.00
2018-08-13T03:47:07.274Z,100.00
2018-08-13T03:48:07.253Z,108.00
2018-08-13T03:49:07.236Z,116.00
2018-08-13T03:50:07.214Z,124.00
2018-08-13T03:51:07.200Z,136.00
2018-08-13T03:52:07.183Z,144.00
2018-08-13T03:53:07.162Z,152.00
2018-08-13T03:54:07.143Z,160.00
2018-08-13T03:55:07.122Z,172.00
2018-08-13T03:56:07.103Z,180.00
2018-08-13T03:57:07.086Z,188.00
2018-08-13T03:58:07.065Z,200.00
2018-08-13T03:59:07.051Z,216.00
2018-08-13T04:00:37.446Z,232.00
2018-08-13T04:01:37.413Z,244.00
2018-08-13T04:02:37.388Z,260.00
2018-08-13T04:03:37.376Z,268.00
2018-08-13T04:04:37.352Z,284.00
2018-08-13T04:05:37.335Z,296.00
2018-08-13T04:06:37.316Z,316.00
2018-08-13T04:07:37.298Z,328.00
2018-08-13T04:08:37.279Z,348.00
2018-08-13T04:09:37.261Z,364.00
2018-08-13T04:10:37.243Z,380.00
2018-08-13T04:11:37.229Z,396.00
2018-08-13T04:12:37.205Z,408.00
2018-08-13T04:13:37.194Z,420.00
2018-08-13T04:14:37.173Z,432.00
2018-08-13T04:15:37.156Z,444.00
2018-08-13T04:16:37.134Z,456.00
2018-08-13T04:17:37.126Z,468.00
2018-08-13T04:18:37.104Z,480.00
2018-08-13T04:19:37.085Z,496.00
2018-08-13T04:20:37.064Z,508.00
2018-08-13T04:21:37.052Z,516.00
2018-08-13T04:22:37.033Z,528.00
2018-08-13T04:23:37.013Z,540.00
2018-08-13T04:24:36.995Z,548.00
2018-08-13T04:25:36.980Z,564.00
2018-08-13T04:26:36.966Z,572.00
2018-08-13T04:27:36.952Z,584.00
2018-08-13T04:28:36.927Z,596.00
2018-08-13T04:29:36.909Z,608.00
2018-08-13T04:30:36.894Z,616.00
2018-08-13T04:31:36.875Z,624.00
2018-08-13T04:32:36.898Z,636.00
2018-08-13T04:33:36.840Z,648.00
2018-08-13T04:34:36.824Z,656.00
2018-08-13T04:35:36.805Z,664.00
2018-08-13T04:36:36.789Z,672.00
2018-08-13T04:37:36.772Z,684.00
2018-08-13T04:38:36.776Z,696.00
2018-08-13T04:39:36.738Z,704.00
2018-08-13T04:40:36.746Z,712.00
2018-08-13T04:41:36.702Z,720.00
2018-08-13T04:42:36.687Z,736.00
2018-08-13T04:43:36.669Z,744.00
2018-08-13T04:44:36.655Z,752.00
2018-08-13T04:45:36.636Z,768.00
2018-08-13T04:46:36.618Z,780.00
2018-08-13T04:47:36.599Z,792.00
2018-08-13T04:48:36.581Z,808.00
2018-08-13T04:49:36.568Z,820.00
2018-08-13T04:50:36.547Z,836.00
2018-08-13T04:51:36.535Z,856.00
2018-08-13T04:52:36.513Z,876.00
2018-08-13T04:53:36.497Z,900.00
2018-08-13T04:54:36.481Z,920.00
2018-08-13T04:55:36.468Z,936.00
2018-08-13T04:56:36.445Z,944.00
2018-08-13T04:57:36.433Z,956.00
2018-08-13T04:58:36.413Z,960.00
2018-08-13T04:59:36.394Z,968.00
2018-08-13T05:00:36.382Z,976.00
2018-08-13T05:01:36.362Z,984.00
2018-08-13T05:02:36.347Z,992.00
2018-08-13T05:03:36.329Z,996.00
2018-08-13T05:04:36.312Z,1000.00
2018-08-13T05:05:36.295Z,1000.00
2018-08-13T05:06:36.279Z,1008.00
2018-08-13T05:07:36.262Z,1012.00
2018-08-13T05:08:36.244Z,1020.00
2018-08-13T05:09:36.228Z,1020.00
2018-08-13T05:10:36.214Z,1028.00
2018-08-13T05:11:36.195Z,1032.00
2018-08-13T05:12:36.177Z,1040.00
2018-08-13T05:13:36.159Z,1044.00
2018-08-13T05:14:36.157Z,1052.00
2018-08-13T05:15:36.128Z,1064.00
2018-08-13T05:16:36.109Z,1072.00
2018-08-13T05:17:36.092Z,1092.00
2018-08-13T05:18:36.079Z,1124.00
2018-08-13T05:19:36.064Z,1160.00
2018-08-13T05:20:36.043Z,1196.00
2018-08-13T05:21:36.026Z,1224.00
2018-08-13T05:22:36.017Z,1244.00
2018-08-13T05:23:35.994Z,1248.00
2018-08-13T05:24:35.980Z,1256.00
2018-08-13T05:25:35.961Z,1256.00
2018-08-13T05:26:35.944Z,1264.00
2018-08-13T05:27:35.976Z,1292.00
2018-08-13T05:28:35.913Z,1324.00
2018-08-13T05:29:35.893Z,1348.00
2018-08-13T05:30:35.881Z,1368.00
2018-08-13T05:31:35.862Z,1384.00
2018-08-13T05:32:35.847Z,1408.00
2018-08-13T05:33:35.829Z,1424.00
2018-08-13T05:34:35.815Z,1424.00
2018-08-13T05:35:35.800Z,1416.00
2018-08-13T05:36:35.782Z,1408.00
2018-08-13T05:37:35.763Z,1396.00
2018-08-13T05:38:35.769Z,1380.00
2018-08-13T05:39:35.731Z,1372.00
2018-08-13T05:40:35.713Z,1360.00
2018-08-13T05:41:35.696Z,1356.00
2018-08-13T05:42:35.682Z,1344.00
2018-08-13T05:43:35.666Z,1332.00
2018-08-13T05:44:35.647Z,1320.00
2018-08-13T05:45:35.641Z,1316.00
2018-08-13T05:46:35.616Z,1312.00
2018-08-13T05:47:35.600Z,1316.00
2018-08-13T05:48:35.583Z,1332.00
2018-08-13T05:49:35.569Z,1356.00
2018-08-13T05:50:35.551Z,1380.00
2018-08-13T05:51:35.543Z,1416.00
2018-08-13T05:52:35.518Z,1472.00
2018-08-13T05:53:35.504Z,1532.00
2018-08-13T05:54:35.487Z,1608.00
2018-08-13T05:55:35.469Z,1684.00
2018-08-13T05:56:35.453Z,1756.00
2018-08-13T05:57:35.440Z,1812.00
2018-08-13T05:58:35.424Z,1860.00
2018-08-13T05:59:35.407Z,1896.00
2018-08-13T06:00:35.392Z,1932.00
2018-08-13T06:01:35.375Z,1972.00
2018-08-13T06:02:35.359Z,2020.00
2018-08-13T06:03:35.343Z,2060.00
2018-08-13T06:04:35.353Z,2104.00
2018-08-13T06:05:35.311Z,2144.00
2018-08-13T06:06:35.295Z,2160.00
2018-08-13T06:07:35.283Z,2168.00
2018-08-13T06:08:35.270Z,2164.00
2018-08-13T06:09:35.259Z,2156.00
2018-08-13T06:10:35.232Z,2140.00
2018-08-13T06:11:35.311Z,2112.00
2018-08-13T06:12:35.199Z,2092.00
2018-08-13T06:13:35.183Z,2080.00
2018-08-13T06:14:35.170Z,2068.00
2018-08-13T06:15:35.152Z,2044.00
2018-08-13T06:16:35.140Z,2036.00
2018-08-13T06:17:35.120Z,2032.00
2018-08-13T06:18:35.121Z,2020.00
2018-08-13T06:19:35.100Z,2004.00
2018-08-13T06:20:35.077Z,1984.00
2018-08-13T06:21:35.059Z,1964.00
2018-08-13T06:22:35.044Z,1952.00
2018-08-13T06:23:35.031Z,1944.00
2018-08-13T06:24:35.012Z,1944.00
2018-08-13T06:25:34.997Z,1960.00
2018-08-13T06:26:34.983Z,1968.00
2018-08-13T06:27:34.968Z,1988.00
2018-08-13T06:28:34.953Z,2016.00
2018-08-13T06:29:34.937Z,2036.00
2018-08-13T06:30:34.923Z,2048.00
2018-08-13T06:31:34.911Z,2064.00
2018-08-13T06:32:34.896Z,2080.00
2018-08-13T06:33:34.878Z,2116.00
2018-08-13T06:34:34.861Z,2144.00
2018-08-13T06:35:34.846Z,2188.00
2018-08-13T06:36:34.831Z,2216.00
2018-08-13T06:37:34.830Z,2248.00
2018-08-13T06:38:34.801Z,2280.00
2018-08-13T06:39:34.784Z,2300.00
2018-08-13T06:40:34.770Z,2328.00
2018-08-13T06:41:34.758Z,2348.00
2018-08-13T06:42:34.746Z,2436.00
2018-08-13T06:43:34.729Z,2488.00
2018-08-13T06:44:34.713Z,2536.00
2018-08-13T06:45:34.697Z,2580.00
2018-08-13T06:46:34.691Z,2620.00
2018-08-13T06:47:34.671Z,2656.00
2018-08-13T06:48:34.654Z,2704.00
2018-08-13T06:49:34.967Z,2760.00
2018-08-13T06:50:34.629Z,2840.00
2018-08-13T06:51:34.611Z,2932.00
2018-08-13T06:52:34.598Z,3032.00
2018-08-13T06:53:34.584Z,3140.00
2018-08-13T06:54:34.569Z,3244.00
2018-08-13T06:55:34.556Z,3336.00
2018-08-13T06:56:34.541Z,3432.00
2018-08-13T06:57:34.530Z,3520.00
2018-08-13T06:58:34.513Z,3612.00
2018-08-13T06:59:34.502Z,3704.00
2018-08-13T07:00:34.488Z,3812.00
2018-08-13T07:01:34.475Z,3884.00
2018-08-13T07:02:34.457Z,3956.00
2018-08-13T07:03:34.445Z,3980.00
2018-08-13T07:04:34.433Z,4040.00
2018-08-13T07:05:34.416Z,4088.00
2018-08-13T07:06:34.407Z,3976.00
2018-08-13T07:07:34.390Z,4116.00
2018-08-13T07:08:34.377Z,4092.00
2018-08-13T07:09:34.363Z,4056.00
2018-08-13T07:10:34.353Z,4000.00
2018-08-13T07:11:34.340Z,4044.00
2018-08-13T07:12:34.323Z,4040.00
2018-08-13T07:13:34.311Z,4092.00
2018-08-13T07:14:34.300Z,4208.00
2018-08-13T07:15:34.307Z,4316.00
2018-08-13T07:16:34.272Z,4452.00
2018-08-13T07:17:34.275Z,4764.00
2018-08-13T07:18:34.247Z,4756.00
2018-08-13T07:19:34.233Z,4800.00
2018-08-13T07:20:34.223Z,4796.00
2018-08-13T07:21:34.207Z,4928.00
2018-08-13T07:22:34.196Z,5096.00
2018-08-13T07:23:34.184Z,5548.00
2018-08-13T07:24:34.172Z,7864.00
2018-08-13T07:25:34.161Z,18240.00
2018-08-13T07:26:34.149Z,30784.00
2018-08-13T07:27:34.133Z,40448.00
2018-08-13T07:28:34.121Z,44992.00
2018-08-13T07:29:34.109Z,43968.00
2018-08-13T07:30:34.097Z,47168.00
2018-08-13T07:31:34.086Z,49792.00
2018-08-13T07:32:34.079Z,48800.00
2018-08-13T07:33:34.097Z,45824.00
2018-08-13T07:34:34.057Z,39136.00
2018-08-13T07:35:34.043Z,41408.00
2018-08-13T07:36:34.036Z,46592.00
2018-08-13T07:37:34.022Z,50272.00
2018-08-13T07:38:34.014Z,52672.00
2018-08-13T07:39:34.052Z,50368.00
2018-08-13T07:40:33.995Z,50208.00
2018-08-13T07:41:33.985Z,50048.00
2018-08-13T07:42:33.977Z,47456.00
2018-08-13T07:43:33.970Z,52288.00
2018-08-13T07:44:33.959Z,54400.00
2018-08-13T07:45:33.956Z,56896.00
2018-08-13T07:46:33.974Z,57440.00
2018-08-13T07:47:33.940Z,58816.00
2018-08-13T07:48:33.929Z,56608.00
2018-08-13T07:49:33.920Z,55712.00
2018-08-13T07:50:33.917Z,56672.00
2018-08-13T07:51:33.956Z,58016.00
2018-08-13T07:52:34.715Z,60160.00
2018-08-13T07:53:33.893Z,57792.00
2018-08-13T07:54:33.887Z,54048.00
2018-08-13T07:55:33.881Z,54944.00
2018-08-13T07:56:33.875Z,58816.00
2018-08-13T07:57:33.868Z,57312.00
2018-08-13T07:58:33.887Z,59776.00
2018-08-13T07:59:33.858Z,63104.00
2018-08-13T08:00:33.850Z,58240.00
2018-08-13T08:01:33.848Z,56704.00
2018-08-13T08:02:33.844Z,62048.00
2018-08-13T08:03:33.846Z,66592.00
2018-08-13T08:04:33.833Z,66784.00
2018-08-13T08:05:33.828Z,68384.00
2018-08-13T08:06:33.824Z,68480.00
2018-08-13T08:07:33.827Z,66176.00
2018-08-13T08:08:33.815Z,64576.00
2018-08-13T08:09:33.809Z,65984.00
2018-08-13T08:10:33.809Z,68704.00
2018-08-13T08:11:33.805Z,67936.00
2018-08-13T08:12:33.796Z,66944.00
2018-08-13T08:13:33.793Z,67616.00
2018-08-13T08:14:33.810Z,67520.00
2018-08-13T08:15:33.785Z,67936.00
2018-08-13T08:16:33.786Z,68480.00
2018-08-13T08:17:33.783Z,69664.00
2018-08-13T08:18:33.777Z,72800.00
2018-08-13T08:19:33.774Z,71200.00
2018-08-13T08:20:33.770Z,67552.00
2018-08-13T08:21:33.767Z,68480.00
2018-08-13T08:22:33.762Z,68384.00
2018-08-13T08:23:33.758Z,68192.00
2018-08-13T08:24:33.756Z,70944.00
2018-08-13T08:25:33.753Z,68768.00
2018-08-13T08:26:33.751Z,66496.00
2018-08-13T08:27:33.746Z,70048.00
2018-08-13T08:28:33.744Z,74688.00
2018-08-13T08:29:33.741Z,75424.00
2018-08-13T08:30:33.738Z,73888.00
2018-08-13T08:31:33.737Z,73824.00
2018-08-13T08:32:33.731Z,75520.00
2018-08-13T08:33:33.735Z,73024.00
2018-08-13T08:34:33.726Z,71168.00
2018-08-13T08:35:33.726Z,67488.00
2018-08-13T08:36:33.723Z,71264.00
2018-08-13T08:37:33.720Z,70848.00
2018-08-13T08:38:33.719Z,71552.00
2018-08-13T08:39:33.723Z,53760.00
2018-08-13T08:40:33.826Z,26752.00
2018-08-13T08:41:33.710Z,17440.00
2018-08-13T08:42:33.709Z,16128.00
2018-08-13T08:43:33.711Z,15456.00
2018-08-13T08:44:33.704Z,15168.00
2018-08-13T08:45:33.703Z,15008.00
2018-08-13T08:46:33.701Z,14912.00
2018-08-13T08:47:33.702Z,14912.00
2018-08-13T08:48:33.700Z,15008.00
2018-08-13T08:49:33.694Z,15040.00
2018-08-13T08:50:33.693Z,15232.00
2018-08-13T08:51:33.694Z,15616.00
2018-08-13T08:52:33.693Z,4064.00
2018-08-13T08:53:33.694Z,4284.00
2018-08-13T08:54:33.685Z,4340.00
2018-08-13T08:55:33.683Z,4196.00
2018-08-13T08:56:33.683Z,3876.00
2018-08-13T08:57:33.678Z,4068.00
2018-08-13T08:58:33.682Z,4520.00
2018-08-13T08:59:33.674Z,4532.00
2018-08-13T09:00:33.675Z,4556.00
2018-08-13T09:01:33.672Z,4420.00
2018-08-13T09:02:33.667Z,3412.00
2018-08-13T09:03:33.663Z,3032.00
2018-08-13T09:04:33.663Z,3032.00
2018-08-13T09:05:33.663Z,3064.00
2018-08-13T09:06:33.655Z,3288.00
2018-08-13T09:07:33.653Z,4448.00
2018-08-13T09:08:33.650Z,4388.00
2018-08-13T09:09:33.647Z,4272.00
2018-08-13T09:10:33.644Z,4308.00
2018-08-13T09:12:16.849Z,4420.00
2018-08-13T09:13:16.845Z,4308.00
2018-08-13T09:14:17.042Z,4240.00
2018-08-13T09:15:16.838Z,3816.00
2018-08-13T09:16:16.837Z,3672.00
2018-08-13T09:17:16.828Z,3588.00
2018-08-13T09:18:16.827Z,3272.00
2018-08-13T09:19:16.827Z,3664.00
2018-08-13T09:20:16.822Z,3772.00
2018-08-13T09:21:16.815Z,3664.00
2018-08-13T09:22:16.812Z,3632.00
2018-08-13T09:23:16.810Z,3400.00
2018-08-13T09:24:16.869Z,3504.00
2018-08-13T09:25:16.800Z,3428.00
2018-08-13T09:26:16.796Z,3340.00
2018-08-13T09:27:16.789Z,3400.00
2018-08-13T09:28:16.789Z,3380.00
2018-08-13T09:29:16.782Z,3356.00
2018-08-13T09:30:16.791Z,3372.00
2018-08-13T09:31:16.776Z,3392.00
2018-08-13T09:32:16.768Z,3420.00
2018-08-13T09:33:16.773Z,3464.00
2018-08-13T09:34:16.763Z,3548.00
2018-08-13T09:35:16.755Z,3620.00
2018-08-13T09:36:16.751Z,3656.00
2018-08-13T09:37:16.748Z,3692.00
2018-08-13T09:38:16.742Z,3696.00
2018-08-13T09:39:16.741Z,3696.00
2018-08-13T09:40:16.734Z,3704.00
2018-08-13T09:41:16.732Z,3708.00
2018-08-13T09:42:16.726Z,3696.00
2018-08-13T09:43:16.719Z,3668.00
2018-08-13T09:44:16.714Z,3672.00
2018-08-13T09:45:16.710Z,3696.00
2018-08-13T09:46:16.711Z,3712.00
2018-08-13T09:47:16.699Z,3728.00
2018-08-13T09:48:16.817Z,3764.00
2018-08-13T09:49:16.691Z,3808.00
2018-08-13T09:50:16.684Z,3860.00
2018-08-13T09:51:16.678Z,3900.00
2018-08-13T09:52:16.675Z,3928.00
2018-08-13T09:53:16.671Z,3964.00
2018-08-13T09:54:16.674Z,3980.00
2018-08-13T09:55:16.660Z,3948.00
2018-08-13T09:56:16.655Z,4028.00
2018-08-13T09:57:16.653Z,3596.00
2018-08-13T09:58:16.647Z,3864.00
2018-08-13T09:59:16.652Z,4040.00
2018-08-13T10:00:16.676Z,4076.00
2018-08-13T10:01:16.629Z,3276.00
2018-08-13T10:02:16.626Z,3704.00
2018-08-13T10:03:16.622Z,3744.00
2018-08-13T10:04:16.614Z,4084.00
2018-08-13T10:05:16.617Z,4128.00
2018-08-13T10:06:16.605Z,17824.00
2018-08-13T10:07:16.598Z,18112.00
2018-08-13T10:08:16.596Z,18432.00
2018-08-13T10:09:16.636Z,18880.00
2018-08-13T10:10:16.585Z,19232.00
2018-08-13T10:11:16.579Z,19776.00
2018-08-13T10:12:16.580Z,20256.00
2018-08-13T10:13:16.570Z,20800.00
2018-08-13T10:14:16.566Z,21696.00
2018-08-13T10:15:16.561Z,22240.00
2018-08-13T10:16:16.558Z,22592.00
2018-08-13T10:17:16.554Z,20800.00
2018-08-13T10:18:16.549Z,23872.00
2018-08-13T10:19:16.548Z,24928.00
2018-08-13T10:20:16.541Z,27744.00
2018-08-13T10:21:16.538Z,36800.00
2018-08-13T10:22:16.537Z,57632.00
2018-08-13T10:23:16.531Z,83168.00
2018-08-13T10:24:16.529Z,84800.00
2018-08-13T10:25:16.523Z,102688.00
2018-08-13T10:26:16.521Z,98496.00
2018-08-13T10:27:16.518Z,89376.00
2018-08-13T10:28:16.517Z,85696.00
2018-08-13T10:29:16.513Z,82752.00
2018-08-13T10:30:16.511Z,90720.00
2018-08-13T10:31:16.507Z,98048.00
2018-08-13T10:32:16.511Z,100736.00
2018-08-13T10:33:16.502Z,95936.00
2018-08-13T10:34:16.502Z,97376.00
2018-08-13T10:35:16.499Z,100128.00
2018-08-13T10:36:16.496Z,90592.00
2018-08-13T10:37:16.550Z,87584.00
2018-08-13T10:38:16.494Z,104416.00
2018-08-13T10:39:16.495Z,92704.00
2018-08-13T10:40:16.490Z,89728.00
2018-08-13T10:41:16.496Z,100544.00
2018-08-13T10:42:16.488Z,99712.00
2018-08-13T10:43:16.485Z,102592.00
2018-08-13T10:44:16.491Z,104608.00
2018-08-13T10:45:16.485Z,106624.00
2018-08-13T10:46:16.486Z,108736.00
2018-08-13T10:47:16.480Z,107840.00
2018-08-13T10:48:16.479Z,106624.00
2018-08-13T10:49:16.488Z,106304.00
2018-08-13T10:50:16.477Z,103936.00
2018-08-13T10:51:16.477Z,104224.00
2018-08-13T10:52:16.478Z,102976.00
2018-08-13T10:53:16.476Z,102656.00
2018-08-13T10:54:16.475Z,99136.00
2018-08-13T10:55:16.474Z,97632.00
2018-08-13T10:56:16.603Z,89472.00
2018-08-13T10:57:16.475Z,92800.00
2018-08-13T10:58:16.477Z,105056.00
2018-08-13T10:59:16.483Z,110560.00
2018-08-13T11:00:16.474Z,112384.00
2018-08-13T11:01:16.534Z,106944.00
2018-08-13T11:02:16.474Z,99200.00
2018-08-13T11:03:16.475Z,98112.00
2018-08-13T11:04:16.476Z,103616.00
2018-08-13T11:05:16.486Z,110368.00
2018-08-13T11:06:16.476Z,90720.00
2018-08-13T11:07:16.476Z,81216.00
2018-08-13T11:08:16.478Z,98464.00
2018-08-13T11:09:16.489Z,89536.00
2018-08-13T11:10:16.501Z,90720.00
2018-08-13T11:11:16.480Z,93408.00
2018-08-13T11:12:16.479Z,89280.00
2018-08-13T11:13:16.481Z,92000.00
2018-08-13T11:14:16.482Z,90176.00
2018-08-13T11:15:16.487Z,75520.00
2018-08-13T11:16:16.484Z,63040.00
2018-08-13T11:17:16.539Z,55584.00
2018-08-13T11:18:16.486Z,97568.00
2018-08-13T11:19:16.489Z,101600.00
2018-08-13T11:20:16.490Z,96896.00
2018-08-13T11:21:16.491Z,107712.00
2018-08-13T11:22:16.492Z,102368.00
2018-08-13T11:23:16.492Z,99744.00
2018-08-13T11:24:16.495Z,92256.00
2018-08-13T11:25:16.543Z,94240.00
2018-08-13T11:26:16.500Z,100512.00
2018-08-13T11:27:16.499Z,4688.00
2018-08-13T11:28:16.502Z,4664.00
2018-08-13T11:29:16.502Z,4664.00
2018-08-13T11:30:16.508Z,4676.00
2018-08-13T11:31:16.534Z,4688.00
2018-08-13T11:32:16.508Z,4648.00
2018-08-13T11:33:16.515Z,4624.00
2018-08-13T11:34:16.518Z,4600.00
2018-08-13T11:35:16.509Z,4628.00
2018-08-13T11:36:16.509Z,4616.00
2018-08-13T11:37:16.511Z,4600.00
2018-08-13T11:38:16.513Z,4592.00
2018-08-13T11:39:16.519Z,4584.00
2018-08-13T11:40:16.513Z,4604.00
2018-08-13T11:41:16.526Z,4624.00
2018-08-13T11:42:16.512Z,4644.00
2018-08-13T11:43:16.512Z,4668.00
2018-08-13T11:44:16.512Z,4720.00
2018-08-13T11:45:16.511Z,4744.00
2018-08-13T11:46:16.526Z,4764.00
2018-08-13T11:47:16.512Z,4820.00
2018-08-13T11:48:16.509Z,4884.00
2018-08-13T11:49:16.509Z,4980.00
2018-08-13T11:50:16.519Z,5072.00
2018-08-13T11:51:16.506Z,5136.00
2018-08-13T11:52:16.506Z,5188.00
2018-08-13T11:53:16.505Z,5268.00
2018-08-13T11:54:16.505Z,5344.00
2018-08-13T11:55:16.585Z,5444.00
2018-08-13T11:56:16.533Z,5548.00
2018-08-13T11:57:16.496Z,5688.00
2018-08-13T11:58:16.498Z,6168.00
2018-08-13T11:59:16.497Z,7220.00
2018-08-13T12:00:16.495Z,34048.00
2018-08-13T12:01:16.492Z,83520.00
2018-08-13T12:02:16.493Z,86336.00
2018-08-13T12:03:16.499Z,82912.00
2018-08-13T12:04:16.496Z,78784.00
2018-08-13T12:05:16.498Z,79104.00
2018-08-13T12:06:16.486Z,80384.00
2018-08-13T12:07:16.485Z,83296.00
2018-08-13T12:08:16.527Z,71360.00
2018-08-13T12:09:16.486Z,77120.00
2018-08-13T12:10:16.485Z,48288.00
2018-08-13T12:11:16.478Z,34528.00
2018-08-13T12:12:16.478Z,84512.00
2018-08-13T12:13:16.477Z,74368.00
2018-08-13T12:14:16.477Z,60192.00
2018-08-13T12:15:16.481Z,55808.00
2018-08-13T12:16:16.475Z,63104.00
2018-08-13T12:17:16.473Z,13760.00
2018-08-13T12:18:16.484Z,15072.00
2018-08-13T12:19:16.471Z,74816.00
2018-08-13T12:20:16.471Z,127200.00
2018-08-13T12:21:16.471Z,36480.00
2018-08-13T12:22:16.470Z,46496.00